sensor_id;sensor_type;location;lat;lon;timestamp;P1;durP1;ratioP1;P2;durP2;ratioP2
53299;SDS011;39187;48.476;8.310;2022-07-29T00:02:17;7.30;;;6.90;;
53299;SDS011;39187;48.476;8.310;2022-07-29T00:04:43;6.87;;;6.37;;
53299;SDS011;39187;48.476;8.310;2022-07-29T00:07:08;6.90;;;6.40;;
53299;SDS011;39187;48.476;8.310;2022-07-29T00:09:34;5.37;;;5.17;;
53299;SDS011;39187;48.476;8.310;2022-07-29T00:12:00;7.70;;;7.30;;
53299;SDS011;39187;48.476;8.310;2022-07-29T00:14:26;6.70;;;6.10;;
53299;SDS011;39187;48.476;8.310;2022-07-29T00:16:52;7.03;;;6.63;;
53299;SDS011;39187;48.476;8.310;2022-07-29T00:19:18;6.63;;;6.40;;
53299;SDS011;39187;48.476;8.310;2022-07-29T00:21:43;5.47;;;5.20;;
53299;SDS011;39187;48.476;8.310;2022-07-29T00:24:09;6.20;;;5.90;;
53299;SDS011;39187;48.476;8.310;2022-07-29T00:26:35;6.60;;;6.13;;
53299;SDS011;39187;48.476;8.310;2022-07-29T00:29:01;6.53;;;6.23;;
53299;SDS011;39187;48.476;8.310;2022-07-29T00:31:28;7.43;;;7.13;;
53299;SDS011;39187;48.476;8.310;2022-07-29T00:33:54;11.40;;;7.20;;
53299;SDS011;39187;48.476;8.310;2022-07-29T00:36:20;7.20;;;6.70;;
53299;SDS011;39187;48.476;8.310;2022-07-29T00:38:47;16.27;;;8.20;;
53299;SDS011;39187;48.476;8.310;2022-07-29T00:41:13;7.63;;;7.23;;
53299;SDS011;39187;48.476;8.310;2022-07-29T00:43:39;8.30;;;7.70;;
53299;SDS011;39187;48.476;8.310;2022-07-29T00:46:05;7.97;;;7.47;;
53299;SDS011;39187;48.476;8.310;2022-07-29T00:48:31;8.77;;;8.00;;
53299;SDS011;39187;48.476;8.310;2022-07-29T00:50:57;8.10;;;7.80;;
53299;SDS011;39187;48.476;8.310;2022-07-29T00:53:24;9.10;;;8.37;;
53299;SDS011;39187;48.476;8.310;2022-07-29T00:55:50;8.27;;;7.77;;
53299;SDS011;39187;48.476;8.310;2022-07-29T00:58:16;9.50;;;8.50;;
53299;SDS011;39187;48.476;8.310;2022-07-29T01:00:42;8.07;;;7.67;;
53299;SDS011;39187;48.476;8.310;2022-07-29T01:03:08;8.37;;;7.87;;
53299;SDS011;39187;48.476;8.310;2022-07-29T01:05:34;8.80;;;8.20;;
53299;SDS011;39187;48.476;8.310;2022-07-29T01:08:00;8.53;;;8.13;;
53299;SDS011;39187;48.476;8.310;2022-07-29T01:10:27;8.03;;;7.57;;
53299;SDS011;39187;48.476;8.310;2022-07-29T01:12:54;9.60;;;8.00;;
53299;SDS011;39187;48.476;8.310;2022-07-29T01:15:23;8.70;;;8.30;;
53299;SDS011;39187;48.476;8.310;2022-07-29T01:20:52;8.67;;;8.30;;
53299;SDS011;39187;48.476;8.310;2022-07-29T01:23:32;8.67;;;8.27;;
53299;SDS011;39187;48.476;8.310;2022-07-29T01:29:12;9.53;;;7.40;;
53299;SDS011;39187;48.476;8.310;2022-07-29T01:34:52;9.23;;;8.63;;
53299;SDS011;39187;48.476;8.310;2022-07-29T01:37:25;8.40;;;8.00;;
53299;SDS011;39187;48.476;8.310;2022-07-29T01:39:52;9.13;;;8.63;;
53299;SDS011;39187;48.476;8.310;2022-07-29T01:42:27;9.40;;;8.87;;
53299;SDS011;39187;48.476;8.310;2022-07-29T01:45:00;8.63;;;8.23;;
53299;SDS011;39187;48.476;8.310;2022-07-29T01:47:56;7.83;;;7.43;;
53299;SDS011;39187;48.476;8.310;2022-07-29T01:50:26;7.83;;;7.33;;
53299;SDS011;39187;48.476;8.310;2022-07-29T01:53:04;7.90;;;7.40;;
53299;SDS011;39187;48.476;8.310;2022-07-29T01:55:35;7.33;;;7.00;;
53299;SDS011;39187;48.476;8.310;2022-07-29T01:58:04;8.53;;;8.13;;
53299;SDS011;39187;48.476;8.310;2022-07-29T02:00:32;24.90;;;20.87;;
53299;SDS011;39187;48.476;8.310;2022-07-29T02:03:00;17.53;;;15.97;;
53299;SDS011;39187;48.476;8.310;2022-07-29T02:05:29;17.03;;;15.60;;
53299;SDS011;39187;48.476;8.310;2022-07-29T02:07:58;9.30;;;8.80;;
53299;SDS011;39187;48.476;8.310;2022-07-29T02:10:27;8.53;;;8.23;;
53299;SDS011;39187;48.476;8.310;2022-07-29T02:12:55;8.47;;;7.90;;
53299;SDS011;39187;48.476;8.310;2022-07-29T02:15:27;8.20;;;7.70;;
53299;SDS011;39187;48.476;8.310;2022-07-29T02:18:04;6.63;;;6.30;;
53299;SDS011;39187;48.476;8.310;2022-07-29T02:20:32;8.53;;;8.13;;
53299;SDS011;39187;48.476;8.310;2022-07-29T02:22:59;9.43;;;8.63;;
53299;SDS011;39187;48.476;8.310;2022-07-29T02:25:26;9.40;;;8.60;;
53299;SDS011;39187;48.476;8.310;2022-07-29T02:27:53;7.07;;;6.77;;
53299;SDS011;39187;48.476;8.310;2022-07-29T02:30:21;14.93;;;8.07;;
53299;SDS011;39187;48.476;8.310;2022-07-29T02:32:49;7.73;;;7.23;;
53299;SDS011;39187;48.476;8.310;2022-07-29T02:35:16;7.97;;;7.30;;
53299;SDS011;39187;48.476;8.310;2022-07-29T02:37:44;7.17;;;6.70;;
53299;SDS011;39187;48.476;8.310;2022-07-29T02:40:31;7.60;;;7.30;;
53299;SDS011;39187;48.476;8.310;2022-07-29T02:43:01;7.30;;;6.70;;
53299;SDS011;39187;48.476;8.310;2022-07-29T02:45:29;6.70;;;6.37;;
53299;SDS011;39187;48.476;8.310;2022-07-29T02:47:55;7.70;;;7.40;;
53299;SDS011;39187;48.476;8.310;2022-07-29T02:50:29;7.07;;;6.80;;
53299;SDS011;39187;48.476;8.310;2022-07-29T02:53:00;7.57;;;7.00;;
53299;SDS011;39187;48.476;8.310;2022-07-29T02:55:43;6.50;;;6.30;;
53299;SDS011;39187;48.476;8.310;2022-07-29T03:00:46;8.00;;;7.37;;
53299;SDS011;39187;48.476;8.310;2022-07-29T03:03:13;7.80;;;7.30;;
53299;SDS011;39187;48.476;8.310;2022-07-29T03:05:41;7.57;;;6.87;;
53299;SDS011;39187;48.476;8.310;2022-07-29T03:08:08;7.77;;;7.27;;
53299;SDS011;39187;48.476;8.310;2022-07-29T03:10:36;8.57;;;7.87;;
53299;SDS011;39187;48.476;8.310;2022-07-29T03:13:04;8.30;;;7.90;;
53299;SDS011;39187;48.476;8.310;2022-07-29T03:15:30;6.87;;;6.57;;
53299;SDS011;39187;48.476;8.310;2022-07-29T03:17:56;7.60;;;7.10;;
53299;SDS011;39187;48.476;8.310;2022-07-29T03:20:23;8.77;;;8.37;;
53299;SDS011;39187;48.476;8.310;2022-07-29T03:22:50;11.07;;;8.33;;
53299;SDS011;39187;48.476;8.310;2022-07-29T03:25:16;8.37;;;7.47;;
53299;SDS011;39187;48.476;8.310;2022-07-29T03:27:44;9.90;;;9.17;;
53299;SDS011;39187;48.476;8.310;2022-07-29T03:30:11;8.97;;;8.57;;
53299;SDS011;39187;48.476;8.310;2022-07-29T03:32:37;11.23;;;9.93;;
53299;SDS011;39187;48.476;8.310;2022-07-29T03:35:04;9.00;;;8.27;;
53299;SDS011;39187;48.476;8.310;2022-07-29T03:37:30;8.90;;;8.40;;
53299;SDS011;39187;48.476;8.310;2022-07-29T03:39:58;9.70;;;9.00;;
53299;SDS011;39187;48.476;8.310;2022-07-29T03:42:32;9.40;;;8.70;;
53299;SDS011;39187;48.476;8.310;2022-07-29T03:45:02;11.37;;;10.37;;
53299;SDS011;39187;48.476;8.310;2022-07-29T03:47:31;9.77;;;9.07;;
53299;SDS011;39187;48.476;8.310;2022-07-29T03:50:00;10.77;;;9.90;;
53299;SDS011;39187;48.476;8.310;2022-07-29T03:52:30;9.67;;;9.20;;
53299;SDS011;39187;48.476;8.310;2022-07-29T03:54:57;11.03;;;10.03;;
53299;SDS011;39187;48.476;8.310;2022-07-29T03:57:27;9.23;;;8.60;;
53299;SDS011;39187;48.476;8.310;2022-07-29T03:59:55;10.80;;;9.93;;
53299;SDS011;39187;48.476;8.310;2022-07-29T04:02:21;8.87;;;8.40;;
53299;SDS011;39187;48.476;8.310;2022-07-29T04:04:48;9.83;;;9.10;;
53299;SDS011;39187;48.476;8.310;2022-07-29T04:07:14;10.30;;;9.30;;
53299;SDS011;39187;48.476;8.310;2022-07-29T04:09:40;14.53;;;9.73;;
53299;SDS011;39187;48.476;8.310;2022-07-29T04:12:06;10.00;;;9.13;;
53299;SDS011;39187;48.476;8.310;2022-07-29T04:14:33;10.27;;;9.43;;
53299;SDS011;39187;48.476;8.310;2022-07-29T04:17:03;10.00;;;9.10;;
53299;SDS011;39187;48.476;8.310;2022-07-29T04:19:30;9.67;;;8.90;;
53299;SDS011;39187;48.476;8.310;2022-07-29T04:21:56;10.13;;;9.43;;
53299;SDS011;39187;48.476;8.310;2022-07-29T04:24:22;9.97;;;9.37;;
53299;SDS011;39187;48.476;8.310;2022-07-29T04:26:48;11.20;;;10.20;;
53299;SDS011;39187;48.476;8.310;2022-07-29T04:29:14;9.77;;;8.97;;
53299;SDS011;39187;48.476;8.310;2022-07-29T04:31:42;10.83;;;10.00;;
53299;SDS011;39187;48.476;8.310;2022-07-29T04:34:08;9.80;;;9.10;;
53299;SDS011;39187;48.476;8.310;2022-07-29T04:36:34;9.53;;;8.83;;
53299;SDS011;39187;48.476;8.310;2022-07-29T04:39:00;9.20;;;8.33;;
53299;SDS011;39187;48.476;8.310;2022-07-29T04:41:28;7.90;;;7.40;;
53299;SDS011;39187;48.476;8.310;2022-07-29T04:43:55;8.87;;;8.27;;
53299;SDS011;39187;48.476;8.310;2022-07-29T04:46:20;7.53;;;6.93;;
53299;SDS011;39187;48.476;8.310;2022-07-29T04:48:46;7.37;;;7.07;;
53299;SDS011;39187;48.476;8.310;2022-07-29T04:51:12;10.03;;;9.13;;
53299;SDS011;39187;48.476;8.310;2022-07-29T04:53:39;7.40;;;6.90;;
53299;SDS011;39187;48.476;8.310;2022-07-29T04:56:04;7.83;;;7.30;;
53299;SDS011;39187;48.476;8.310;2022-07-29T04:58:30;15.67;;;8.00;;
53299;SDS011;39187;48.476;8.310;2022-07-29T05:00:56;7.10;;;6.63;;
53299;SDS011;39187;48.476;8.310;2022-07-29T05:03:21;8.07;;;7.30;;
53299;SDS011;39187;48.476;8.310;2022-07-29T05:05:47;7.57;;;7.17;;
53299;SDS011;39187;48.476;8.310;2022-07-29T05:08:13;10.00;;;7.43;;
53299;SDS011;39187;48.476;8.310;2022-07-29T05:10:38;6.90;;;6.40;;
53299;SDS011;39187;48.476;8.310;2022-07-29T05:13:05;7.70;;;6.70;;
53299;SDS011;39187;48.476;8.310;2022-07-29T05:15:32;7.07;;;6.70;;
53299;SDS011;39187;48.476;8.310;2022-07-29T05:17:58;10.63;;;6.77;;
53299;SDS011;39187;48.476;8.310;2022-07-29T05:20:24;11.37;;;7.00;;
53299;SDS011;39187;48.476;8.310;2022-07-29T05:22:54;6.83;;;6.63;;
53299;SDS011;39187;48.476;8.310;2022-07-29T05:25:23;6.40;;;6.00;;
53299;SDS011;39187;48.476;8.310;2022-07-29T05:27:50;6.00;;;5.60;;
53299;SDS011;39187;48.476;8.310;2022-07-29T05:30:25;5.93;;;5.40;;
53299;SDS011;39187;48.476;8.310;2022-07-29T05:32:51;5.50;;;5.20;;
53299;SDS011;39187;48.476;8.310;2022-07-29T05:35:16;5.50;;;5.00;;
53299;SDS011;39187;48.476;8.310;2022-07-29T05:37:42;3.90;;;3.80;;
53299;SDS011;39187;48.476;8.310;2022-07-29T05:40:10;7.73;;;4.23;;
53299;SDS011;39187;48.476;8.310;2022-07-29T05:42:36;5.33;;;3.80;;
53299;SDS011;39187;48.476;8.310;2022-07-29T05:45:02;4.37;;;4.10;;
53299;SDS011;39187;48.476;8.310;2022-07-29T05:47:28;3.83;;;3.37;;
53299;SDS011;39187;48.476;8.310;2022-07-29T05:49:54;4.90;;;4.70;;
53299;SDS011;39187;48.476;8.310;2022-07-29T05:52:19;3.90;;;3.70;;
53299;SDS011;39187;48.476;8.310;2022-07-29T05:54:46;5.17;;;4.80;;
53299;SDS011;39187;48.476;8.310;2022-07-29T05:57:18;8.13;;;4.90;;
53299;SDS011;39187;48.476;8.310;2022-07-29T05:59:46;12.03;;;4.80;;
53299;SDS011;39187;48.476;8.310;2022-07-29T06:02:13;5.00;;;4.70;;
53299;SDS011;39187;48.476;8.310;2022-07-29T06:04:39;4.53;;;4.13;;
53299;SDS011;39187;48.476;8.310;2022-07-29T06:07:05;7.00;;;4.10;;
53299;SDS011;39187;48.476;8.310;2022-07-29T06:09:31;3.87;;;3.53;;
53299;SDS011;39187;48.476;8.310;2022-07-29T06:11:57;4.97;;;4.67;;
53299;SDS011;39187;48.476;8.310;2022-07-29T06:14:23;9.73;;;3.20;;
53299;SDS011;39187;48.476;8.310;2022-07-29T06:16:49;4.20;;;4.00;;
53299;SDS011;39187;48.476;8.310;2022-07-29T06:19:15;3.63;;;3.53;;
53299;SDS011;39187;48.476;8.310;2022-07-29T06:21:41;5.13;;;3.50;;
53299;SDS011;39187;48.476;8.310;2022-07-29T06:24:10;4.03;;;3.77;;
53299;SDS011;39187;48.476;8.310;2022-07-29T06:26:38;9.23;;;3.97;;
53299;SDS011;39187;48.476;8.310;2022-07-29T06:29:04;6.43;;;3.70;;
53299;SDS011;39187;48.476;8.310;2022-07-29T06:31:30;3.20;;;2.90;;
53299;SDS011;39187;48.476;8.310;2022-07-29T06:33:55;7.57;;;3.10;;
53299;SDS011;39187;48.476;8.310;2022-07-29T06:36:21;6.67;;;3.50;;
53299;SDS011;39187;48.476;8.310;2022-07-29T06:38:46;3.20;;;3.00;;
53299;SDS011;39187;48.476;8.310;2022-07-29T06:41:12;3.20;;;3.00;;
53299;SDS011;39187;48.476;8.310;2022-07-29T06:43:42;3.10;;;2.87;;
53299;SDS011;39187;48.476;8.310;2022-07-29T06:46:13;5.17;;;3.37;;
53299;SDS011;39187;48.476;8.310;2022-07-29T06:48:40;3.43;;;3.23;;
53299;SDS011;39187;48.476;8.310;2022-07-29T06:51:07;2.73;;;2.63;;
53299;SDS011;39187;48.476;8.310;2022-07-29T06:53:33;2.70;;;2.53;;
53299;SDS011;39187;48.476;8.310;2022-07-29T06:55:59;5.60;;;2.60;;
53299;SDS011;39187;48.476;8.310;2022-07-29T06:58:26;2.77;;;2.67;;
53299;SDS011;39187;48.476;8.310;2022-07-29T07:00:53;4.30;;;2.57;;
53299;SDS011;39187;48.476;8.310;2022-07-29T07:03:18;6.90;;;3.30;;
53299;SDS011;39187;48.476;8.310;2022-07-29T07:05:46;4.60;;;2.90;;
53299;SDS011;39187;48.476;8.310;2022-07-29T07:08:11;6.60;;;2.87;;
53299;SDS011;39187;48.476;8.310;2022-07-29T07:10:38;6.33;;;3.43;;
53299;SDS011;39187;48.476;8.310;2022-07-29T07:13:04;3.10;;;2.90;;
53299;SDS011;39187;48.476;8.310;2022-07-29T07:15:30;3.20;;;3.00;;
53299;SDS011;39187;48.476;8.310;2022-07-29T07:17:56;4.20;;;3.27;;
53299;SDS011;39187;48.476;8.310;2022-07-29T07:20:22;3.07;;;2.87;;
53299;SDS011;39187;48.476;8.310;2022-07-29T07:22:48;5.00;;;3.47;;
53299;SDS011;39187;48.476;8.310;2022-07-29T07:25:14;3.27;;;2.77;;
53299;SDS011;39187;48.476;8.310;2022-07-29T07:27:39;3.60;;;3.33;;
53299;SDS011;39187;48.476;8.310;2022-07-29T07:30:05;3.60;;;3.30;;
53299;SDS011;39187;48.476;8.310;2022-07-29T07:32:32;4.23;;;3.17;;
53299;SDS011;39187;48.476;8.310;2022-07-29T07:34:58;4.70;;;3.10;;
53299;SDS011;39187;48.476;8.310;2022-07-29T07:37:24;3.27;;;3.13;;
53299;SDS011;39187;48.476;8.310;2022-07-29T07:39:51;6.83;;;3.77;;
53299;SDS011;39187;48.476;8.310;2022-07-29T07:42:17;8.10;;;3.70;;
53299;SDS011;39187;48.476;8.310;2022-07-29T07:44:43;3.60;;;3.30;;
53299;SDS011;39187;48.476;8.310;2022-07-29T07:47:10;3.63;;;3.43;;
53299;SDS011;39187;48.476;8.310;2022-07-29T07:49:37;4.73;;;4.33;;
53299;SDS011;39187;48.476;8.310;2022-07-29T07:52:03;3.60;;;3.40;;
53299;SDS011;39187;48.476;8.310;2022-07-29T07:54:29;4.73;;;4.33;;
53299;SDS011;39187;48.476;8.310;2022-07-29T07:56:54;4.00;;;3.80;;
53299;SDS011;39187;48.476;8.310;2022-07-29T07:59:20;4.27;;;3.87;;
53299;SDS011;39187;48.476;8.310;2022-07-29T08:01:46;4.13;;;3.90;;
53299;SDS011;39187;48.476;8.310;2022-07-29T08:04:11;4.00;;;3.70;;
53299;SDS011;39187;48.476;8.310;2022-07-29T08:06:37;3.60;;;3.40;;
53299;SDS011;39187;48.476;8.310;2022-07-29T08:09:03;3.90;;;3.60;;
53299;SDS011;39187;48.476;8.310;2022-07-29T08:11:29;3.47;;;3.23;;
53299;SDS011;39187;48.476;8.310;2022-07-29T08:13:55;5.63;;;3.80;;
53299;SDS011;39187;48.476;8.310;2022-07-29T08:16:24;4.60;;;4.20;;
53299;SDS011;39187;48.476;8.310;2022-07-29T08:18:50;4.00;;;3.80;;
53299;SDS011;39187;48.476;8.310;2022-07-29T08:21:16;3.87;;;3.67;;
53299;SDS011;39187;48.476;8.310;2022-07-29T08:23:43;4.03;;;3.70;;
53299;SDS011;39187;48.476;8.310;2022-07-29T08:26:18;3.70;;;3.50;;
53299;SDS011;39187;48.476;8.310;2022-07-29T08:28:45;6.33;;;4.80;;
53299;SDS011;39187;48.476;8.310;2022-07-29T08:31:14;3.83;;;3.53;;
53299;SDS011;39187;48.476;8.310;2022-07-29T08:33:40;6.30;;;3.80;;
53299;SDS011;39187;48.476;8.310;2022-07-29T08:36:06;4.27;;;3.57;;
53299;SDS011;39187;48.476;8.310;2022-07-29T08:38:32;3.53;;;3.33;;
53299;SDS011;39187;48.476;8.310;2022-07-29T08:40:58;4.90;;;3.77;;
53299;SDS011;39187;48.476;8.310;2022-07-29T08:43:26;3.90;;;3.70;;
53299;SDS011;39187;48.476;8.310;2022-07-29T08:45:52;5.87;;;4.57;;
53299;SDS011;39187;48.476;8.310;2022-07-29T08:48:19;3.93;;;3.60;;
53299;SDS011;39187;48.476;8.310;2022-07-29T08:50:48;4.30;;;4.00;;
53299;SDS011;39187;48.476;8.310;2022-07-29T08:53:18;5.77;;;3.60;;
53299;SDS011;39187;48.476;8.310;2022-07-29T08:55:44;3.43;;;3.23;;
53299;SDS011;39187;48.476;8.310;2022-07-29T08:58:13;4.00;;;3.80;;
53299;SDS011;39187;48.476;8.310;2022-07-29T09:00:44;4.50;;;4.07;;
53299;SDS011;39187;48.476;8.310;2022-07-29T09:03:15;3.93;;;3.67;;
53299;SDS011;39187;48.476;8.310;2022-07-29T09:05:45;4.50;;;4.30;;
53299;SDS011;39187;48.476;8.310;2022-07-29T09:08:15;4.83;;;4.40;;
53299;SDS011;39187;48.476;8.310;2022-07-29T09:10:42;3.97;;;3.67;;
53299;SDS011;39187;48.476;8.310;2022-07-29T09:13:08;4.37;;;4.00;;
53299;SDS011;39187;48.476;8.310;2022-07-29T09:15:34;5.10;;;3.73;;
53299;SDS011;39187;48.476;8.310;2022-07-29T09:18:00;4.47;;;3.93;;
53299;SDS011;39187;48.476;8.310;2022-07-29T09:20:27;3.50;;;3.40;;
53299;SDS011;39187;48.476;8.310;2022-07-29T09:23:13;5.03;;;4.30;;
53299;SDS011;39187;48.476;8.310;2022-07-29T09:25:39;3.60;;;3.50;;
53299;SDS011;39187;48.476;8.310;2022-07-29T09:28:11;7.33;;;3.60;;
53299;SDS011;39187;48.476;8.310;2022-07-29T09:30:51;4.33;;;4.13;;
53299;SDS011;39187;48.476;8.310;2022-07-29T09:33:20;7.23;;;3.90;;
53299;SDS011;39187;48.476;8.310;2022-07-29T09:35:58;4.83;;;4.43;;
53299;SDS011;39187;48.476;8.310;2022-07-29T09:38:25;4.00;;;3.80;;
53299;SDS011;39187;48.476;8.310;2022-07-29T09:40:57;6.23;;;4.90;;
53299;SDS011;39187;48.476;8.310;2022-07-29T09:43:24;4.30;;;4.10;;
53299;SDS011;39187;48.476;8.310;2022-07-29T09:45:49;5.03;;;4.50;;
53299;SDS011;39187;48.476;8.310;2022-07-29T09:48:17;4.73;;;4.30;;
53299;SDS011;39187;48.476;8.310;2022-07-29T09:50:47;4.37;;;4.07;;
53299;SDS011;39187;48.476;8.310;2022-07-29T09:53:32;5.33;;;4.30;;
53299;SDS011;39187;48.476;8.310;2022-07-29T09:55:59;5.40;;;4.97;;
53299;SDS011;39187;48.476;8.310;2022-07-29T09:58:24;7.50;;;4.03;;
53299;SDS011;39187;48.476;8.310;2022-07-29T10:00:50;5.63;;;3.90;;
53299;SDS011;39187;48.476;8.310;2022-07-29T10:03:18;8.87;;;5.07;;
53299;SDS011;39187;48.476;8.310;2022-07-29T10:05:44;7.17;;;4.57;;
53299;SDS011;39187;48.476;8.310;2022-07-29T10:08:11;3.80;;;3.60;;
53299;SDS011;39187;48.476;8.310;2022-07-29T10:10:38;4.30;;;3.90;;
53299;SDS011;39187;48.476;8.310;2022-07-29T10:13:07;3.90;;;3.60;;
53299;SDS011;39187;48.476;8.310;2022-07-29T10:15:35;5.03;;;4.50;;
53299;SDS011;39187;48.476;8.310;2022-07-29T10:18:04;4.57;;;4.17;;
53299;SDS011;39187;48.476;8.310;2022-07-29T10:20:30;4.93;;;4.60;;
53299;SDS011;39187;48.476;8.310;2022-07-29T10:22:56;4.80;;;4.60;;
53299;SDS011;39187;48.476;8.310;2022-07-29T10:25:22;4.43;;;4.23;;
53299;SDS011;39187;48.476;8.310;2022-07-29T10:27:49;4.80;;;4.50;;
53299;SDS011;39187;48.476;8.310;2022-07-29T10:30:19;4.77;;;4.50;;
53299;SDS011;39187;48.476;8.310;2022-07-29T10:43:50;6.27;;;4.60;;
53299;SDS011;39187;48.476;8.310;2022-07-29T10:46:18;5.03;;;4.37;;
53299;SDS011;39187;48.476;8.310;2022-07-29T10:54:17;4.90;;;4.37;;
53299;SDS011;39187;48.476;8.310;2022-07-29T10:56:43;3.90;;;3.60;;
53299;SDS011;39187;48.476;8.310;2022-07-29T11:01:46;3.37;;;3.07;;
53299;SDS011;39187;48.476;8.310;2022-07-29T11:04:13;3.50;;;3.30;;
53299;SDS011;39187;48.476;8.310;2022-07-29T11:09:23;5.40;;;2.87;;
53299;SDS011;39187;48.476;8.310;2022-07-29T11:11:49;3.20;;;2.90;;
53299;SDS011;39187;48.476;8.310;2022-07-29T11:14:14;3.97;;;2.90;;
53299;SDS011;39187;48.476;8.310;2022-07-29T11:16:58;2.80;;;2.60;;
53299;SDS011;39187;48.476;8.310;2022-07-29T11:19:27;6.33;;;3.67;;
53299;SDS011;39187;48.476;8.310;2022-07-29T11:21:53;6.03;;;3.23;;
53299;SDS011;39187;48.476;8.310;2022-07-29T11:24:20;3.43;;;2.90;;
53299;SDS011;39187;48.476;8.310;2022-07-29T11:27:06;3.00;;;2.90;;
53299;SDS011;39187;48.476;8.310;2022-07-29T11:29:35;5.03;;;2.90;;
53299;SDS011;39187;48.476;8.310;2022-07-29T11:32:12;3.47;;;2.83;;
53299;SDS011;39187;48.476;8.310;2022-07-29T11:34:41;2.90;;;2.80;;
53299;SDS011;39187;48.476;8.310;2022-07-29T11:39:37;7.33;;;3.37;;
53299;SDS011;39187;48.476;8.310;2022-07-29T11:45:01;3.60;;;3.33;;
53299;SDS011;39187;48.476;8.310;2022-07-29T11:47:32;4.37;;;3.10;;
53299;SDS011;39187;48.476;8.310;2022-07-29T11:50:00;3.40;;;3.23;;
53299;SDS011;39187;48.476;8.310;2022-07-29T11:52:32;3.37;;;2.87;;
53299;SDS011;39187;48.476;8.310;2022-07-29T11:55:01;9.50;;;3.70;;
53299;SDS011;39187;48.476;8.310;2022-07-29T11:57:30;3.73;;;2.30;;
53299;SDS011;39187;48.476;8.310;2022-07-29T11:59:57;8.47;;;3.40;;
53299;SDS011;39187;48.476;8.310;2022-07-29T12:02:23;5.07;;;3.13;;
53299;SDS011;39187;48.476;8.310;2022-07-29T12:04:52;4.20;;;3.90;;
53299;SDS011;39187;48.476;8.310;2022-07-29T12:07:26;7.70;;;3.57;;
53299;SDS011;39187;48.476;8.310;2022-07-29T12:09:53;4.93;;;3.23;;
53299;SDS011;39187;48.476;8.310;2022-07-29T12:12:19;4.80;;;2.80;;
53299;SDS011;39187;48.476;8.310;2022-07-29T12:14:46;7.30;;;3.73;;
53299;SDS011;39187;48.476;8.310;2022-07-29T12:19:58;5.30;;;3.87;;
53299;SDS011;39187;48.476;8.310;2022-07-29T12:22:29;3.63;;;3.20;;
53299;SDS011;39187;48.476;8.310;2022-07-29T12:25:09;4.13;;;3.20;;
53299;SDS011;39187;48.476;8.310;2022-07-29T12:27:37;3.70;;;3.50;;
53299;SDS011;39187;48.476;8.310;2022-07-29T12:30:07;6.80;;;3.70;;
53299;SDS011;39187;48.476;8.310;2022-07-29T12:32:34;4.00;;;3.43;;
53299;SDS011;39187;48.476;8.310;2022-07-29T12:35:06;3.53;;;3.33;;
53299;SDS011;39187;48.476;8.310;2022-07-29T12:37:34;3.50;;;3.30;;
53299;SDS011;39187;48.476;8.310;2022-07-29T12:40:02;2.97;;;2.83;;
53299;SDS011;39187;48.476;8.310;2022-07-29T12:42:29;3.07;;;2.97;;
53299;SDS011;39187;48.476;8.310;2022-07-29T12:44:55;5.20;;;3.17;;
53299;SDS011;39187;48.476;8.310;2022-07-29T12:47:21;4.00;;;3.70;;
53299;SDS011;39187;48.476;8.310;2022-07-29T12:49:48;5.23;;;3.37;;
53299;SDS011;39187;48.476;8.310;2022-07-29T12:52:31;3.77;;;3.47;;
53299;SDS011;39187;48.476;8.310;2022-07-29T12:54:57;3.80;;;3.60;;
53299;SDS011;39187;48.476;8.310;2022-07-29T12:57:24;9.70;;;3.83;;
53299;SDS011;39187;48.476;8.310;2022-07-29T13:00:00;5.70;;;2.77;;
53299;SDS011;39187;48.476;8.310;2022-07-29T13:02:32;7.03;;;3.17;;
53299;SDS011;39187;48.476;8.310;2022-07-29T13:04:59;2.87;;;2.70;;
53299;SDS011;39187;48.476;8.310;2022-07-29T13:07:28;3.30;;;3.10;;
53299;SDS011;39187;48.476;8.310;2022-07-29T13:10:16;6.73;;;3.77;;
53299;SDS011;39187;48.476;8.310;2022-07-29T13:15:39;3.27;;;2.90;;
53299;SDS011;39187;48.476;8.310;2022-07-29T13:20:54;3.43;;;2.87;;
53299;SDS011;39187;48.476;8.310;2022-07-29T13:23:21;5.60;;;3.10;;
53299;SDS011;39187;48.476;8.310;2022-07-29T13:25:46;3.20;;;3.07;;
53299;SDS011;39187;48.476;8.310;2022-07-29T13:28:12;3.10;;;2.90;;
53299;SDS011;39187;48.476;8.310;2022-07-29T13:30:39;3.20;;;2.90;;
53299;SDS011;39187;48.476;8.310;2022-07-29T13:33:06;3.50;;;3.20;;
53299;SDS011;39187;48.476;8.310;2022-07-29T13:35:31;3.77;;;3.47;;
53299;SDS011;39187;48.476;8.310;2022-07-29T13:37:57;3.30;;;2.97;;
53299;SDS011;39187;48.476;8.310;2022-07-29T13:40:23;3.50;;;3.27;;
53299;SDS011;39187;48.476;8.310;2022-07-29T13:42:48;7.13;;;3.00;;
53299;SDS011;39187;48.476;8.310;2022-07-29T13:45:14;4.83;;;3.07;;
53299;SDS011;39187;48.476;8.310;2022-07-29T13:47:40;3.83;;;2.70;;
53299;SDS011;39187;48.476;8.310;2022-07-29T13:50:06;3.60;;;3.30;;
53299;SDS011;39187;48.476;8.310;2022-07-29T13:52:34;4.23;;;3.50;;
53299;SDS011;39187;48.476;8.310;2022-07-29T13:55:01;3.30;;;3.10;;
53299;SDS011;39187;48.476;8.310;2022-07-29T13:57:27;4.03;;;3.73;;
53299;SDS011;39187;48.476;8.310;2022-07-29T13:59:53;4.60;;;3.67;;
53299;SDS011;39187;48.476;8.310;2022-07-29T14:02:20;3.97;;;3.77;;
53299;SDS011;39187;48.476;8.310;2022-07-29T14:04:46;7.83;;;3.83;;
53299;SDS011;39187;48.476;8.310;2022-07-29T14:07:11;6.43;;;3.60;;
53299;SDS011;39187;48.476;8.310;2022-07-29T14:09:37;3.47;;;3.20;;
53299;SDS011;39187;48.476;8.310;2022-07-29T14:12:03;4.30;;;4.00;;
53299;SDS011;39187;48.476;8.310;2022-07-29T14:14:29;3.37;;;3.07;;
53299;SDS011;39187;48.476;8.310;2022-07-29T14:16:56;3.77;;;3.50;;
53299;SDS011;39187;48.476;8.310;2022-07-29T14:19:22;3.90;;;3.70;;
53299;SDS011;39187;48.476;8.310;2022-07-29T14:21:47;3.83;;;3.17;;
53299;SDS011;39187;48.476;8.310;2022-07-29T14:24:13;4.07;;;3.70;;
53299;SDS011;39187;48.476;8.310;2022-07-29T14:26:38;4.73;;;4.07;;
53299;SDS011;39187;48.476;8.310;2022-07-29T14:29:04;4.57;;;4.27;;
53299;SDS011;39187;48.476;8.310;2022-07-29T14:31:29;4.03;;;3.63;;
53299;SDS011;39187;48.476;8.310;2022-07-29T14:33:55;4.00;;;3.80;;
53299;SDS011;39187;48.476;8.310;2022-07-29T14:36:21;3.37;;;3.20;;
53299;SDS011;39187;48.476;8.310;2022-07-29T14:38:46;3.10;;;3.00;;
53299;SDS011;39187;48.476;8.310;2022-07-29T14:41:12;3.27;;;3.10;;
53299;SDS011;39187;48.476;8.310;2022-07-29T14:43:37;7.00;;;2.80;;
53299;SDS011;39187;48.476;8.310;2022-07-29T14:46:03;3.80;;;2.93;;
53299;SDS011;39187;48.476;8.310;2022-07-29T14:48:28;4.37;;;4.20;;
53299;SDS011;39187;48.476;8.310;2022-07-29T14:50:54;5.50;;;2.47;;
53299;SDS011;39187;48.476;8.310;2022-07-29T14:53:21;3.30;;;2.50;;
53299;SDS011;39187;48.476;8.310;2022-07-29T14:55:47;2.97;;;2.77;;
53299;SDS011;39187;48.476;8.310;2022-07-29T14:58:14;3.20;;;2.60;;
53299;SDS011;39187;48.476;8.310;2022-07-29T15:00:40;2.60;;;2.50;;
53299;SDS011;39187;48.476;8.310;2022-07-29T15:03:05;3.57;;;3.43;;
53299;SDS011;39187;48.476;8.310;2022-07-29T15:05:34;2.90;;;2.40;;
53299;SDS011;39187;48.476;8.310;2022-07-29T15:08:00;5.93;;;3.83;;
53299;SDS011;39187;48.476;8.310;2022-07-29T15:10:25;11.93;;;4.03;;
53299;SDS011;39187;48.476;8.310;2022-07-29T15:12:52;2.90;;;2.70;;
53299;SDS011;39187;48.476;8.310;2022-07-29T15:15:18;5.27;;;2.40;;
53299;SDS011;39187;48.476;8.310;2022-07-29T15:17:44;2.67;;;2.30;;
53299;SDS011;39187;48.476;8.310;2022-07-29T15:20:10;7.73;;;4.40;;
53299;SDS011;39187;48.476;8.310;2022-07-29T15:22:36;3.30;;;3.10;;
53299;SDS011;39187;48.476;8.310;2022-07-29T15:25:04;2.67;;;2.57;;
53299;SDS011;39187;48.476;8.310;2022-07-29T15:27:30;2.63;;;2.53;;
53299;SDS011;39187;48.476;8.310;2022-07-29T15:29:56;3.07;;;2.83;;
53299;SDS011;39187;48.476;8.310;2022-07-29T15:32:22;2.30;;;2.20;;
53299;SDS011;39187;48.476;8.310;2022-07-29T15:34:47;2.83;;;2.63;;
53299;SDS011;39187;48.476;8.310;2022-07-29T15:37:13;2.70;;;2.60;;